sensor_id;sensor_type;location;lat;lon;timestamp;P1;durP1;ratioP1;P2;durP2;ratioP2
31734;SDS011;18313;48.518;9.124;2022-11-18T00:00:03;1.50;;;0.95;;
31734;SDS011;18313;48.518;9.124;2022-11-18T00:02:49;1.05;;;0.80;;
31734;SDS011;18313;48.518;9.124;2022-11-18T00:05:34;1.63;;;0.90;;
31734;SDS011;18313;48.518;9.124;2022-11-18T00:08:20;1.55;;;1.10;;
31734;SDS011;18313;48.518;9.124;2022-11-18T00:11:08;2.13;;;1.10;;
31734;SDS011;18313;48.518;9.124;2022-11-18T00:14:20;3.10;;;0.80;;
31734;SDS011;18313;48.518;9.124;2022-11-18T00:17:07;0.90;;;0.60;;
31734;SDS011;18313;48.518;9.124;2022-11-18T00:19:52;1.33;;;0.40;;
31734;SDS011;18313;48.518;9.124;2022-11-18T00:22:38;1.40;;;0.30;;
31734;SDS011;18313;48.518;9.124;2022-11-18T00:25:24;0.55;;;0.30;;
31734;SDS011;18313;48.518;9.124;2022-11-18T00:28:10;0.28;;;0.28;;
31734;SDS011;18313;48.518;9.124;2022-11-18T00:30:59;1.30;;;0.35;;
31734;SDS011;18313;48.518;9.124;2022-11-18T00:33:45;0.68;;;0.40;;
31734;SDS011;18313;48.518;9.124;2022-11-18T00:36:31;0.50;;;0.50;;
31734;SDS011;18313;48.518;9.124;2022-11-18T00:39:17;1.25;;;0.50;;
31734;SDS011;18313;48.518;9.124;2022-11-18T00:42:04;1.73;;;0.70;;
31734;SDS011;18313;48.518;9.124;2022-11-18T00:45:08;2.47;;;1.00;;
31734;SDS011;18313;48.518;9.124;2022-11-18T00:47:54;1.73;;;1.10;;
31734;SDS011;18313;48.518;9.124;2022-11-18T00:50:40;1.85;;;0.90;;
31734;SDS011;18313;48.518;9.124;2022-11-18T00:53:25;1.52;;;0.90;;
31734;SDS011;18313;48.518;9.124;2022-11-18T00:56:11;1.58;;;1.00;;
31734;SDS011;18313;48.518;9.124;2022-11-18T00:58:56;1.98;;;1.10;;
31734;SDS011;18313;48.518;9.124;2022-11-18T01:01:42;3.17;;;1.50;;
31734;SDS011;18313;48.518;9.124;2022-11-18T01:04:28;6.88;;;3.00;;
31734;SDS011;18313;48.518;9.124;2022-11-18T01:07:13;6.50;;;2.53;;
31734;SDS011;18313;48.518;9.124;2022-11-18T01:09:59;4.07;;;2.00;;
31734;SDS011;18313;48.518;9.124;2022-11-18T01:12:44;4.80;;;2.05;;
31734;SDS011;18313;48.518;9.124;2022-11-18T01:15:50;3.75;;;1.80;;
31734;SDS011;18313;48.518;9.124;2022-11-18T01:18:37;2.33;;;1.20;;
31734;SDS011;18313;48.518;9.124;2022-11-18T01:21:23;3.00;;;1.05;;
31734;SDS011;18313;48.518;9.124;2022-11-18T01:24:08;3.28;;;1.17;;
31734;SDS011;18313;48.518;9.124;2022-11-18T01:26:54;3.47;;;2.00;;
31734;SDS011;18313;48.518;9.124;2022-11-18T01:29:40;3.75;;;2.20;;
31734;SDS011;18313;48.518;9.124;2022-11-18T01:32:26;4.95;;;2.80;;
31734;SDS011;18313;48.518;9.124;2022-11-18T01:35:12;5.40;;;1.30;;
31734;SDS011;18313;48.518;9.124;2022-11-18T01:37:58;1.92;;;1.02;;
31734;SDS011;18313;48.518;9.124;2022-11-18T01:40:44;2.08;;;0.80;;
31734;SDS011;18313;48.518;9.124;2022-11-18T01:43:44;1.02;;;0.70;;
31734;SDS011;18313;48.518;9.124;2022-11-18T01:46:50;1.23;;;0.55;;
31734;SDS011;18313;48.518;9.124;2022-11-18T01:49:35;0.75;;;0.55;;
31734;SDS011;18313;48.518;9.124;2022-11-18T01:52:21;1.38;;;0.68;;
31734;SDS011;18313;48.518;9.124;2022-11-18T01:55:12;1.73;;;0.60;;
31734;SDS011;18313;48.518;9.124;2022-11-18T01:58:09;1.00;;;0.70;;
31734;SDS011;18313;48.518;9.124;2022-11-18T02:00:59;1.33;;;0.60;;
31734;SDS011;18313;48.518;9.124;2022-11-18T02:03:46;1.98;;;0.90;;
31734;SDS011;18313;48.518;9.124;2022-11-18T02:06:33;2.17;;;1.10;;
31734;SDS011;18313;48.518;9.124;2022-11-18T02:09:18;2.00;;;1.15;;
31734;SDS011;18313;48.518;9.124;2022-11-18T02:12:05;2.25;;;1.30;;
31734;SDS011;18313;48.518;9.124;2022-11-18T02:14:51;1.63;;;1.30;;
31734;SDS011;18313;48.518;9.124;2022-11-18T02:17:45;1.55;;;1.10;;
31734;SDS011;18313;48.518;9.124;2022-11-18T02:20:40;2.55;;;1.75;;
31734;SDS011;18313;48.518;9.124;2022-11-18T02:26:36;2.25;;;1.50;;
31734;SDS011;18313;48.518;9.124;2022-11-18T02:29:30;3.22;;;1.90;;
31734;SDS011;18313;48.518;9.124;2022-11-18T02:32:22;2.88;;;1.95;;
31734;SDS011;18313;48.518;9.124;2022-11-18T02:35:25;2.92;;;1.80;;
31734;SDS011;18313;48.518;9.124;2022-11-18T02:38:18;4.00;;;2.28;;
31734;SDS011;18313;48.518;9.124;2022-11-18T02:41:33;2.75;;;2.00;;
31734;SDS011;18313;48.518;9.124;2022-11-18T02:44:23;3.00;;;1.90;;
31734;SDS011;18313;48.518;9.124;2022-11-18T02:47:11;3.10;;;1.92;;
31734;SDS011;18313;48.518;9.124;2022-11-18T02:50:00;3.08;;;1.90;;
31734;SDS011;18313;48.518;9.124;2022-11-18T02:52:55;3.13;;;2.05;;
31734;SDS011;18313;48.518;9.124;2022-11-18T02:55:43;2.92;;;2.03;;
31734;SDS011;18313;48.518;9.124;2022-11-18T02:58:31;4.75;;;2.72;;
31734;SDS011;18313;48.518;9.124;2022-11-18T03:01:20;4.35;;;3.13;;
31734;SDS011;18313;48.518;9.124;2022-11-18T03:04:09;5.55;;;2.70;;
31734;SDS011;18313;48.518;9.124;2022-11-18T03:06:57;3.45;;;2.45;;
31734;SDS011;18313;48.518;9.124;2022-11-18T03:10:05;2.25;;;1.90;;
31734;SDS011;18313;48.518;9.124;2022-11-18T03:13:13;2.88;;;1.83;;
31734;SDS011;18313;48.518;9.124;2022-11-18T03:16:11;2.30;;;1.58;;
31734;SDS011;18313;48.518;9.124;2022-11-18T03:19:09;2.30;;;1.50;;
31734;SDS011;18313;48.518;9.124;2022-11-18T03:22:06;2.75;;;1.80;;
31734;SDS011;18313;48.518;9.124;2022-11-18T03:28:03;4.13;;;1.60;;
31734;SDS011;18313;48.518;9.124;2022-11-18T03:33:51;2.05;;;1.50;;
31734;SDS011;18313;48.518;9.124;2022-11-18T03:36:44;1.95;;;1.40;;
31734;SDS011;18313;48.518;9.124;2022-11-18T03:39:36;2.65;;;1.20;;
31734;SDS011;18313;48.518;9.124;2022-11-18T03:42:40;1.80;;;1.30;;
31734;SDS011;18313;48.518;9.124;2022-11-18T03:48:44;0.80;;;0.60;;
31734;SDS011;18313;48.518;9.124;2022-11-18T03:51:39;1.60;;;1.05;;
31734;SDS011;18313;48.518;9.124;2022-11-18T03:54:28;2.03;;;1.20;;
31734;SDS011;18313;48.518;9.124;2022-11-18T03:57:19;3.75;;;1.40;;
31734;SDS011;18313;48.518;9.124;2022-11-18T04:00:12;2.77;;;1.90;;
31734;SDS011;18313;48.518;9.124;2022-11-18T04:02:59;3.05;;;1.88;;
31734;SDS011;18313;48.518;9.124;2022-11-18T04:05:45;2.90;;;1.95;;
31734;SDS011;18313;48.518;9.124;2022-11-18T04:08:36;3.42;;;2.10;;
31734;SDS011;18313;48.518;9.124;2022-11-18T04:11:26;2.53;;;1.80;;
31734;SDS011;18313;48.518;9.124;2022-11-18T04:14:39;2.30;;;1.90;;
31734;SDS011;18313;48.518;9.124;2022-11-18T04:17:27;2.85;;;1.88;;
31734;SDS011;18313;48.518;9.124;2022-11-18T04:20:17;2.28;;;1.70;;
31734;SDS011;18313;48.518;9.124;2022-11-18T04:23:05;2.53;;;1.90;;
31734;SDS011;18313;48.518;9.124;2022-11-18T04:25:51;2.80;;;1.90;;
31734;SDS011;18313;48.518;9.124;2022-11-18T04:28:37;3.72;;;2.05;;
31734;SDS011;18313;48.518;9.124;2022-11-18T04:31:23;2.72;;;2.05;;
31734;SDS011;18313;48.518;9.124;2022-11-18T04:34:08;1.88;;;1.50;;
31734;SDS011;18313;48.518;9.124;2022-11-18T04:36:54;2.10;;;1.13;;
31734;SDS011;18313;48.518;9.124;2022-11-18T04:39:39;1.35;;;0.80;;
31734;SDS011;18313;48.518;9.124;2022-11-18T04:42:25;1.58;;;0.90;;
31734;SDS011;18313;48.518;9.124;2022-11-18T04:45:11;0.80;;;0.60;;
31734;SDS011;18313;48.518;9.124;2022-11-18T04:47:57;0.63;;;0.50;;
31734;SDS011;18313;48.518;9.124;2022-11-18T04:50:47;0.80;;;0.60;;
31734;SDS011;18313;48.518;9.124;2022-11-18T04:53:33;0.77;;;0.57;;
31734;SDS011;18313;48.518;9.124;2022-11-18T04:56:18;0.70;;;0.57;;
31734;SDS011;18313;48.518;9.124;2022-11-18T04:59:04;1.25;;;1.13;;
31734;SDS011;18313;48.518;9.124;2022-11-18T05:01:51;0.90;;;0.50;;
31734;SDS011;18313;48.518;9.124;2022-11-18T05:04:37;1.10;;;0.68;;
31734;SDS011;18313;48.518;9.124;2022-11-18T05:07:22;2.08;;;0.82;;
31734;SDS011;18313;48.518;9.124;2022-11-18T05:10:08;0.75;;;0.70;;
31734;SDS011;18313;48.518;9.124;2022-11-18T05:12:54;2.03;;;0.95;;
31734;SDS011;18313;48.518;9.124;2022-11-18T05:15:39;2.28;;;0.70;;
31734;SDS011;18313;48.518;9.124;2022-11-18T05:18:25;5.07;;;0.70;;
31734;SDS011;18313;48.518;9.124;2022-11-18T05:21:10;0.95;;;0.73;;
31734;SDS011;18313;48.518;9.124;2022-11-18T05:23:57;1.27;;;0.70;;
31734;SDS011;18313;48.518;9.124;2022-11-18T05:26:44;1.75;;;0.80;;
31734;SDS011;18313;48.518;9.124;2022-11-18T05:29:29;2.35;;;0.80;;
31734;SDS011;18313;48.518;9.124;2022-11-18T05:32:15;1.30;;;0.80;;
31734;SDS011;18313;48.518;9.124;2022-11-18T05:35:01;1.92;;;0.75;;
31734;SDS011;18313;48.518;9.124;2022-11-18T05:37:46;1.45;;;0.88;;
31734;SDS011;18313;48.518;9.124;2022-11-18T05:40:32;1.38;;;0.90;;
31734;SDS011;18313;48.518;9.124;2022-11-18T05:43:17;3.38;;;0.95;;
31734;SDS011;18313;48.518;9.124;2022-11-18T05:46:03;1.88;;;0.80;;
31734;SDS011;18313;48.518;9.124;2022-11-18T05:48:48;3.95;;;1.17;;
31734;SDS011;18313;48.518;9.124;2022-11-18T05:51:34;1.92;;;1.10;;
31734;SDS011;18313;48.518;9.124;2022-11-18T05:54:20;4.00;;;2.20;;
31734;SDS011;18313;48.518;9.124;2022-11-18T05:57:06;3.42;;;1.92;;
31734;SDS011;18313;48.518;9.124;2022-11-18T05:59:51;2.65;;;1.00;;
31734;SDS011;18313;48.518;9.124;2022-11-18T06:02:37;1.42;;;0.80;;
31734;SDS011;18313;48.518;9.124;2022-11-18T06:05:24;1.13;;;0.70;;
31734;SDS011;18313;48.518;9.124;2022-11-18T06:08:10;1.30;;;0.70;;
31734;SDS011;18313;48.518;9.124;2022-11-18T06:10:59;1.17;;;0.60;;
31734;SDS011;18313;48.518;9.124;2022-11-18T06:13:59;2.25;;;0.68;;
31734;SDS011;18313;48.518;9.124;2022-11-18T06:16:50;1.23;;;0.60;;
31734;SDS011;18313;48.518;9.124;2022-11-18T06:19:39;1.00;;;0.70;;
31734;SDS011;18313;48.518;9.124;2022-11-18T06:22:25;1.35;;;0.60;;
31734;SDS011;18313;48.518;9.124;2022-11-18T06:25:10;0.85;;;0.52;;
31734;SDS011;18313;48.518;9.124;2022-11-18T06:27:57;1.85;;;0.50;;
31734;SDS011;18313;48.518;9.124;2022-11-18T06:30:44;1.20;;;0.50;;
31734;SDS011;18313;48.518;9.124;2022-11-18T06:33:30;0.70;;;0.45;;
31734;SDS011;18313;48.518;9.124;2022-11-18T06:36:15;0.70;;;0.40;;
31734;SDS011;18313;48.518;9.124;2022-11-18T06:39:02;1.55;;;0.30;;
31734;SDS011;18313;48.518;9.124;2022-11-18T06:41:51;0.40;;;0.40;;
31734;SDS011;18313;48.518;9.124;2022-11-18T06:44:37;0.40;;;0.40;;
31734;SDS011;18313;48.518;9.124;2022-11-18T06:47:23;0.30;;;0.30;;
31734;SDS011;18313;48.518;9.124;2022-11-18T06:50:08;0.90;;;0.40;;
31734;SDS011;18313;48.518;9.124;2022-11-18T06:52:54;0.68;;;0.40;;
31734;SDS011;18313;48.518;9.124;2022-11-18T06:55:41;0.90;;;0.30;;
31734;SDS011;18313;48.518;9.124;2022-11-18T06:58:26;2.58;;;0.43;;
31734;SDS011;18313;48.518;9.124;2022-11-18T07:01:13;0.65;;;0.40;;
31734;SDS011;18313;48.518;9.124;2022-11-18T07:03:59;0.30;;;0.30;;
31734;SDS011;18313;48.518;9.124;2022-11-18T07:06:45;1.90;;;0.30;;
31734;SDS011;18313;48.518;9.124;2022-11-18T07:09:30;1.10;;;0.40;;
31734;SDS011;18313;48.518;9.124;2022-11-18T07:12:16;2.17;;;0.40;;
31734;SDS011;18313;48.518;9.124;2022-11-18T07:15:01;1.02;;;0.43;;
31734;SDS011;18313;48.518;9.124;2022-11-18T07:17:47;0.68;;;0.40;;
31734;SDS011;18313;48.518;9.124;2022-11-18T07:20:33;0.50;;;0.50;;
31734;SDS011;18313;48.518;9.124;2022-11-18T07:23:18;2.25;;;0.50;;
31734;SDS011;18313;48.518;9.124;2022-11-18T07:26:04;0.32;;;0.32;;
31734;SDS011;18313;48.518;9.124;2022-11-18T07:28:50;1.83;;;0.40;;
31734;SDS011;18313;48.518;9.124;2022-11-18T07:31:37;0.45;;;0.40;;
31734;SDS011;18313;48.518;9.124;2022-11-18T07:34:23;0.50;;;0.40;;
31734;SDS011;18313;48.518;9.124;2022-11-18T07:37:09;0.40;;;0.40;;
31734;SDS011;18313;48.518;9.124;2022-11-18T07:39:54;1.00;;;0.50;;
31734;SDS011;18313;48.518;9.124;2022-11-18T07:42:40;0.65;;;0.40;;
31734;SDS011;18313;48.518;9.124;2022-11-18T07:45:28;0.65;;;0.45;;
31734;SDS011;18313;48.518;9.124;2022-11-18T07:48:13;0.50;;;0.40;;
31734;SDS011;18313;48.518;9.124;2022-11-18T07:50:59;0.40;;;0.40;;
31734;SDS011;18313;48.518;9.124;2022-11-18T07:53:45;0.25;;;0.25;;
31734;SDS011;18313;48.518;9.124;2022-11-18T07:56:31;0.30;;;0.30;;
31734;SDS011;18313;48.518;9.124;2022-11-18T07:59:16;0.90;;;0.45;;
31734;SDS011;18313;48.518;9.124;2022-11-18T08:02:02;0.70;;;0.40;;
31734;SDS011;18313;48.518;9.124;2022-11-18T08:04:47;2.17;;;1.27;;
31734;SDS011;18313;48.518;9.124;2022-11-18T08:07:33;1.30;;;0.80;;
31734;SDS011;18313;48.518;9.124;2022-11-18T08:10:18;4.65;;;1.60;;
31734;SDS011;18313;48.518;9.124;2022-11-18T08:13:04;7.40;;;3.55;;
31734;SDS011;18313;48.518;9.124;2022-11-18T08:15:49;3.97;;;1.90;;
31734;SDS011;18313;48.518;9.124;2022-11-18T08:18:35;8.65;;;3.75;;
31734;SDS011;18313;48.518;9.124;2022-11-18T08:21:21;6.93;;;3.17;;
31734;SDS011;18313;48.518;9.124;2022-11-18T08:24:08;2.55;;;1.30;;
31734;SDS011;18313;48.518;9.124;2022-11-18T08:26:54;1.83;;;1.30;;
31734;SDS011;18313;48.518;9.124;2022-11-18T08:29:39;2.13;;;1.20;;
31734;SDS011;18313;48.518;9.124;2022-11-18T08:32:25;2.05;;;1.20;;
31734;SDS011;18313;48.518;9.124;2022-11-18T08:35:10;5.65;;;2.50;;
31734;SDS011;18313;48.518;9.124;2022-11-18T08:37:56;4.82;;;2.10;;
31734;SDS011;18313;48.518;9.124;2022-11-18T08:40:43;7.07;;;3.78;;
31734;SDS011;18313;48.518;9.124;2022-11-18T08:43:31;5.38;;;2.10;;
31734;SDS011;18313;48.518;9.124;2022-11-18T08:46:18;1.90;;;1.00;;
31734;SDS011;18313;48.518;9.124;2022-11-18T08:49:04;2.88;;;1.30;;
31734;SDS011;18313;48.518;9.124;2022-11-18T08:51:49;2.08;;;1.10;;
31734;SDS011;18313;48.518;9.124;2022-11-18T08:54:35;2.95;;;1.30;;
31734;SDS011;18313;48.518;9.124;2022-11-18T08:57:20;2.25;;;1.25;;
31734;SDS011;18313;48.518;9.124;2022-11-18T09:00:07;1.95;;;1.02;;
31734;SDS011;18313;48.518;9.124;2022-11-18T09:02:53;2.45;;;1.00;;
31734;SDS011;18313;48.518;9.124;2022-11-18T09:05:38;2.42;;;1.10;;
31734;SDS011;18313;48.518;9.124;2022-11-18T09:08:24;3.05;;;1.00;;
31734;SDS011;18313;48.518;9.124;2022-11-18T09:11:12;3.63;;;1.00;;
31734;SDS011;18313;48.518;9.124;2022-11-18T09:14:05;1.23;;;0.88;;
31734;SDS011;18313;48.518;9.124;2022-11-18T09:17:11;1.13;;;0.80;;
31734;SDS011;18313;48.518;9.124;2022-11-18T09:19:57;2.42;;;0.80;;
31734;SDS011;18313;48.518;9.124;2022-11-18T09:22:43;2.78;;;0.70;;
31734;SDS011;18313;48.518;9.124;2022-11-18T09:25:29;1.10;;;0.70;;
31734;SDS011;18313;48.518;9.124;2022-11-18T09:28:14;1.67;;;0.77;;
31734;SDS011;18313;48.518;9.124;2022-11-18T09:31:03;3.03;;;1.27;;
31734;SDS011;18313;48.518;9.124;2022-11-18T09:33:49;5.32;;;2.60;;
31734;SDS011;18313;48.518;9.124;2022-11-18T09:36:35;2.88;;;1.00;;
31734;SDS011;18313;48.518;9.124;2022-11-18T09:39:21;1.88;;;0.73;;
31734;SDS011;18313;48.518;9.124;2022-11-18T09:45:14;3.17;;;1.00;;
31734;SDS011;18313;48.518;9.124;2022-11-18T09:48:20;1.17;;;0.73;;
31734;SDS011;18313;48.518;9.124;2022-11-18T09:51:26;2.53;;;0.80;;
31734;SDS011;18313;48.518;9.124;2022-11-18T09:54:24;1.42;;;0.90;;
31734;SDS011;18313;48.518;9.124;2022-11-18T09:57:15;0.75;;;0.60;;
31734;SDS011;18313;48.518;9.124;2022-11-18T10:00:13;0.50;;;0.40;;
31734;SDS011;18313;48.518;9.124;2022-11-18T10:05:50;0.73;;;0.63;;
31734;SDS011;18313;48.518;9.124;2022-11-18T10:08:47;3.85;;;0.80;;
31734;SDS011;18313;48.518;9.124;2022-11-18T10:18:19;1.13;;;0.43;;
31734;SDS011;18313;48.518;9.124;2022-11-18T10:24:23;1.20;;;0.40;;
31734;SDS011;18313;48.518;9.124;2022-11-18T10:27:12;0.57;;;0.40;;
31734;SDS011;18313;48.518;9.124;2022-11-18T10:29:59;0.40;;;0.40;;
31734;SDS011;18313;48.518;9.124;2022-11-18T10:32:53;0.93;;;0.60;;
31734;SDS011;18313;48.518;9.124;2022-11-18T10:35:39;0.63;;;0.50;;
31734;SDS011;18313;48.518;9.124;2022-11-18T10:38:25;1.80;;;0.60;;
31734;SDS011;18313;48.518;9.124;2022-11-18T10:41:11;0.93;;;0.40;;
31734;SDS011;18313;48.518;9.124;2022-11-18T10:44:01;1.92;;;0.80;;
31734;SDS011;18313;48.518;9.124;2022-11-18T10:46:54;3.53;;;1.10;;
31734;SDS011;18313;48.518;9.124;2022-11-18T10:49:40;2.47;;;0.88;;
31734;SDS011;18313;48.518;9.124;2022-11-18T10:52:26;4.10;;;1.40;;
31734;SDS011;18313;48.518;9.124;2022-11-18T10:58:08;1.30;;;0.60;;
31734;SDS011;18313;48.518;9.124;2022-11-18T11:01:19;1.48;;;0.90;;
31734;SDS011;18313;48.518;9.124;2022-11-18T11:04:39;0.80;;;0.60;;
31734;SDS011;18313;48.518;9.124;2022-11-18T11:07:36;2.65;;;0.50;;
31734;SDS011;18313;48.518;9.124;2022-11-18T11:10:22;0.57;;;0.40;;
31734;SDS011;18313;48.518;9.124;2022-11-18T11:13:11;2.83;;;1.10;;
31734;SDS011;18313;48.518;9.124;2022-11-18T11:16:01;0.98;;;0.57;;
31734;SDS011;18313;48.518;9.124;2022-11-18T11:18:49;1.58;;;0.60;;
31734;SDS011;18313;48.518;9.124;2022-11-18T11:21:40;0.73;;;0.60;;
31734;SDS011;18313;48.518;9.124;2022-11-18T11:24:26;1.17;;;0.50;;
31734;SDS011;18313;48.518;9.124;2022-11-18T11:27:14;0.95;;;0.60;;
31734;SDS011;18313;48.518;9.124;2022-11-18T11:30:43;1.85;;;0.70;;
31734;SDS011;18313;48.518;9.124;2022-11-18T11:33:51;1.15;;;0.60;;
31734;SDS011;18313;48.518;9.124;2022-11-18T11:41:14;1.77;;;0.93;;
31734;SDS011;18313;48.518;9.124;2022-11-18T11:53:06;1.40;;;0.70;;
31734;SDS011;18313;48.518;9.124;2022-11-18T11:56:39;1.67;;;0.50;;
31734;SDS011;18313;48.518;9.124;2022-11-18T12:05:25;0.80;;;0.50;;
31734;SDS011;18313;48.518;9.124;2022-11-18T12:08:24;1.75;;;0.50;;
31734;SDS011;18313;48.518;9.124;2022-11-18T12:11:17;1.05;;;0.50;;
31734;SDS011;18313;48.518;9.124;2022-11-18T12:14:11;1.75;;;0.70;;
31734;SDS011;18313;48.518;9.124;2022-11-18T12:20:11;1.05;;;0.45;;
31734;SDS011;18313;48.518;9.124;2022-11-18T12:23:26;0.40;;;0.30;;
31734;SDS011;18313;48.518;9.124;2022-11-18T12:26:31;0.38;;;0.35;;
31734;SDS011;18313;48.518;9.124;2022-11-18T12:37:58;1.40;;;0.70;;
31734;SDS011;18313;48.518;9.124;2022-11-18T12:40:45;1.85;;;0.80;;
31734;SDS011;18313;48.518;9.124;2022-11-18T12:52:53;0.70;;;0.50;;
31734;SDS011;18313;48.518;9.124;2022-11-18T12:55:28;0.90;;;0.50;;
31734;SDS011;18313;48.518;9.124;2022-11-18T12:58:23;1.17;;;0.52;;
31734;SDS011;18313;48.518;9.124;2022-11-18T13:01:11;0.85;;;0.70;;
31734;SDS011;18313;48.518;9.124;2022-11-18T13:04:05;1.70;;;0.70;;
31734;SDS011;18313;48.518;9.124;2022-11-18T13:06:52;1.15;;;0.70;;
31734;SDS011;18313;48.518;9.124;2022-11-18T13:09:40;2.13;;;1.05;;
31734;SDS011;18313;48.518;9.124;2022-11-18T13:12:26;4.70;;;2.45;;
31734;SDS011;18313;48.518;9.124;2022-11-18T13:15:13;4.70;;;3.28;;
31734;SDS011;18313;48.518;9.124;2022-11-18T13:18:18;4.60;;;1.48;;
31734;SDS011;18313;48.518;9.124;2022-11-18T13:21:04;4.13;;;1.50;;
31734;SDS011;18313;48.518;9.124;2022-11-18T13:24:10;1.83;;;0.70;;
31734;SDS011;18313;48.518;9.124;2022-11-18T13:27:01;0.70;;;0.40;;
31734;SDS011;18313;48.518;9.124;2022-11-18T13:29:48;1.02;;;0.50;;
31734;SDS011;18313;48.518;9.124;2022-11-18T13:32:46;1.30;;;0.45;;
31734;SDS011;18313;48.518;9.124;2022-11-18T13:35:32;3.88;;;0.80;;
31734;SDS011;18313;48.518;9.124;2022-11-18T13:38:22;0.65;;;0.35;;
31734;SDS011;18313;48.518;9.124;2022-11-18T13:41:13;1.45;;;0.60;;
31734;SDS011;18313;48.518;9.124;2022-11-18T13:44:22;1.98;;;0.70;;
31734;SDS011;18313;48.518;9.124;2022-11-18T13:53:28;0.65;;;0.47;;
31734;SDS011;18313;48.518;9.124;2022-11-18T13:56:18;2.17;;;0.52;;
31734;SDS011;18313;48.518;9.124;2022-11-18T13:59:19;4.60;;;1.30;;
31734;SDS011;18313;48.518;9.124;2022-11-18T14:02:08;2.67;;;0.70;;
31734;SDS011;18313;48.518;9.124;2022-11-18T14:04:57;1.02;;;0.60;;
31734;SDS011;18313;48.518;9.124;2022-11-18T14:07:52;2.75;;;0.98;;
31734;SDS011;18313;48.518;9.124;2022-11-18T14:10:49;1.48;;;0.70;;
31734;SDS011;18313;48.518;9.124;2022-11-18T14:13:35;2.28;;;1.00;;
31734;SDS011;18313;48.518;9.124;2022-11-18T14:16:35;3.60;;;1.50;;
31734;SDS011;18313;48.518;9.124;2022-11-18T14:19:29;3.33;;;1.20;;
31734;SDS011;18313;48.518;9.124;2022-11-18T14:22:17;3.25;;;1.65;;
31734;SDS011;18313;48.518;9.124;2022-11-18T14:25:18;3.55;;;1.77;;
31734;SDS011;18313;48.518;9.124;2022-11-18T14:28:12;3.60;;;1.60;;
31734;SDS011;18313;48.518;9.124;2022-11-18T14:31:05;4.30;;;0.70;;
31734;SDS011;18313;48.518;9.124;2022-11-18T14:36:49;3.67;;;1.20;;
31734;SDS011;18313;48.518;9.124;2022-11-18T14:39:36;2.08;;;0.80;;
31734;SDS011;18313;48.518;9.124;2022-11-18T14:42:22;2.33;;;1.30;;
31734;SDS011;18313;48.518;9.124;2022-11-18T14:45:10;4.63;;;1.23;;
31734;SDS011;18313;48.518;9.124;2022-11-18T14:47:55;4.93;;;2.70;;
31734;SDS011;18313;48.518;9.124;2022-11-18T14:50:40;12.23;;;6.07;;
31734;SDS011;18313;48.518;9.124;2022-11-18T14:53:26;6.53;;;3.25;;
31734;SDS011;18313;48.518;9.124;2022-11-18T14:59:13;5.82;;;3.33;;
31734;SDS011;18313;48.518;9.124;2022-11-18T15:02:00;4.63;;;1.42;;
31734;SDS011;18313;48.518;9.124;2022-11-18T15:04:46;9.73;;;5.22;;
31734;SDS011;18313;48.518;9.124;2022-11-18T15:07:34;4.75;;;1.80;;
31734;SDS011;18313;48.518;9.124;2022-11-18T15:10:20;3.20;;;1.42;;
31734;SDS011;18313;48.518;9.124;2022-11-18T15:13:06;2.47;;;0.98;;
31734;SDS011;18313;48.518;9.124;2022-11-18T15:15:51;1.65;;;0.60;;
31734;SDS011;18313;48.518;9.124;2022-11-18T15:18:37;1.50;;;0.70;;
31734;SDS011;18313;48.518;9.124;2022-11-18T15:21:23;4.50;;;0.85;;
31734;SDS011;18313;48.518;9.124;2022-11-18T15:24:09;2.65;;;1.00;;
31734;SDS011;18313;48.518;9.124;2022-11-18T15:26:55;2.33;;;0.88;;
31734;SDS011;18313;48.518;9.124;2022-11-18T15:29:40;1.20;;;0.70;;
31734;SDS011;18313;48.518;9.124;2022-11-18T15:32:26;2.20;;;0.98;;
31734;SDS011;18313;48.518;9.124;2022-11-18T15:35:12;2.42;;;0.80;;
31734;SDS011;18313;48.518;9.124;2022-11-18T15:37:58;7.72;;;1.90;;
31734;SDS011;18313;48.518;9.124;2022-11-18T15:40:43;1.92;;;0.80;;
31734;SDS011;18313;48.518;9.124;2022-11-18T15:43:29;3.30;;;1.10;;
31734;SDS011;18313;48.518;9.124;2022-11-18T15:46:15;2.55;;;1.25;;
31734;SDS011;18313;48.518;9.124;2022-11-18T15:49:03;4.22;;;1.27;;
31734;SDS011;18313;48.518;9.124;2022-11-18T15:51:48;2.53;;;1.08;;
31734;SDS011;18313;48.518;9.124;2022-11-18T15:54:34;5.78;;;1.42;;
31734;SDS011;18313;48.518;9.124;2022-11-18T15:57:19;3.38;;;1.00;;
31734;SDS011;18313;48.518;9.124;2022-11-18T16:00:05;2.60;;;1.23;;
31734;SDS011;18313;48.518;9.124;2022-11-18T16:02:53;4.28;;;2.33;;
31734;SDS011;18313;48.518;9.124;2022-11-18T16:05:38;2.65;;;1.48;;
31734;SDS011;18313;48.518;9.124;2022-11-18T16:08:24;3.97;;;0.90;;
31734;SDS011;18313;48.518;9.124;2022-11-18T16:11:11;4.22;;;0.98;;
31734;SDS011;18313;48.518;9.124;2022-11-18T16:14:17;2.95;;;1.20;;
31734;SDS011;18313;48.518;9.124;2022-11-18T16:17:04;2.70;;;0.98;;
31734;SDS011;18313;48.518;9.124;2022-11-18T16:19:50;3.38;;;1.00;;
31734;SDS011;18313;48.518;9.124;2022-11-18T16:22:35;2.00;;;0.93;;
31734;SDS011;18313;48.518;9.124;2022-11-18T16:25:21;3.95;;;0.95;;
31734;SDS011;18313;48.518;9.124;2022-11-18T16:28:08;3.45;;;0.98;;
31734;SDS011;18313;48.518;9.124;2022-11-18T16:30:53;5.32;;;1.00;;
31734;SDS011;18313;48.518;9.124;2022-11-18T16:33:57;1.77;;;1.08;;
31734;SDS011;18313;48.518;9.124;2022-11-18T16:36:43;3.25;;;1.20;;
31734;SDS011;18313;48.518;9.124;2022-11-18T16:39:34;4.15;;;1.60;;
31734;SDS011;18313;48.518;9.124;2022-11-18T16:42:19;4.30;;;1.50;;
31734;SDS011;18313;48.518;9.124;2022-11-18T16:45:05;5.60;;;1.85;;
31734;SDS011;18313;48.518;9.124;2022-11-18T16:47:50;4.50;;;1.60;;
31734;SDS011;18313;48.518;9.124;2022-11-18T16:50:36;9.43;;;1.80;;
31734;SDS011;18313;48.518;9.124;2022-11-18T16:53:22;5.45;;;1.60;;
31734;SDS011;18313;48.518;9.124;2022-11-18T16:56:07;6.22;;;2.00;;
31734;SDS011;18313;48.518;9.124;2022-11-18T16:59:00;5.10;;;1.95;;
31734;SDS011;18313;48.518;9.124;2022-11-18T17:01:52;4.00;;;1.60;;
31734;SDS011;18313;48.518;9.124;2022-11-18T17:04:38;5.90;;;1.80;;
31734;SDS011;18313;48.518;9.124;2022-11-18T17:07:23;3.13;;;1.45;;
31734;SDS011;18313;48.518;9.124;2022-11-18T17:10:09;4.53;;;1.33;;
31734;SDS011;18313;48.518;9.124;2022-11-18T17:13:03;4.03;;;1.60;;
31734;SDS011;18313;48.518;9.124;2022-11-18T17:15:49;3.13;;;1.52;;
31734;SDS011;18313;48.518;9.124;2022-11-18T17:18:34;3.50;;;1.30;;
31734;SDS011;18313;48.518;9.124;2022-11-18T17:21:21;4.32;;;1.50;;
31734;SDS011;18313;48.518;9.124;2022-11-18T17:24:07;3.45;;;1.50;;
31734;SDS011;18313;48.518;9.124;2022-11-18T17:26:54;3.67;;;1.50;;
31734;SDS011;18313;48.518;9.124;2022-11-18T17:29:40;6.30;;;2.15;;
31734;SDS011;18313;48.518;9.124;2022-11-18T17:32:26;3.47;;;1.48;;
31734;SDS011;18313;48.518;9.124;2022-11-18T17:35:11;4.60;;;1.92;;
31734;SDS011;18313;48.518;9.124;2022-11-18T17:37:57;6.30;;;2.47;;
31734;SDS011;18313;48.518;9.124;2022-11-18T17:40:42;4.55;;;2.25;;
31734;SDS011;18313;48.518;9.124;2022-11-18T17:43:28;4.43;;;2.47;;
31734;SDS011;18313;48.518;9.124;2022-11-18T17:46:14;9.20;;;3.70;;
31734;SDS011;18313;48.518;9.124;2022-11-18T17:49:00;5.47;;;3.00;;
31734;SDS011;18313;48.518;9.124;2022-11-18T17:51:48;3.15;;;1.33;;
31734;SDS011;18313;48.518;9.124;2022-11-18T17:54:35;3.35;;;1.13;;
31734;SDS011;18313;48.518;9.124;2022-11-18T17:57:21;5.25;;;1.30;;
31734;SDS011;18313;48.518;9.124;2022-11-18T18:00:06;3.38;;;1.20;;
31734;SDS011;18313;48.518;9.124;2022-11-18T18:02:53;2.15;;;1.15;;
31734;SDS011;18313;48.518;9.124;2022-11-18T18:05:39;3.90;;;1.50;;
31734;SDS011;18313;48.518;9.124;2022-11-18T18:08:24;2.53;;;1.00;;
31734;SDS011;18313;48.518;9.124;2022-11-18T18:11:11;3.08;;;1.27;;
31734;SDS011;18313;48.518;9.124;2022-11-18T18:13:59;2.42;;;1.27;;
31734;SDS011;18313;48.518;9.124;2022-11-18T18:16:56;3.85;;;1.70;;
31734;SDS011;18313;48.518;9.124;2022-11-18T18:19:44;3.45;;;1.40;;
31734;SDS011;18313;48.518;9.124;2022-11-18T18:22:29;2.60;;;1.40;;